createdAt,value
2019-05-07T00:01:02.864Z,101167.73
2019-05-07T00:03:28.977Z,101162.44
2019-05-07T00:05:54.835Z,101166.89
2019-05-07T00:08:22.774Z,101159.40
2019-05-07T00:10:48.615Z,101151.91
2019-05-07T00:13:14.464Z,101128.36
2019-05-07T00:15:41.916Z,101152.98
2019-05-07T00:18:07.998Z,101148.63
2019-05-07T00:20:33.871Z,101151.05
2019-05-07T00:22:59.892Z,101142.92
2019-05-07T00:25:25.823Z,101148.70
2019-05-07T00:27:52.291Z,101153.17
2019-05-07T00:30:18.418Z,101157.62
2019-05-07T00:32:44.439Z,101157.09
2019-05-07T00:35:17.932Z,101157.04
2019-05-07T00:37:46.019Z,101154.34
2019-05-07T00:40:13.986Z,101161.83
2019-05-07T00:42:58.140Z,101172.37
2019-05-07T00:45:42.089Z,101158.73
2019-05-07T00:48:08.242Z,101140.77
2019-05-07T00:50:36.015Z,101137.10
2019-05-07T00:53:02.199Z,101139.02
2019-05-07T00:55:28.298Z,101138.23
2019-05-07T00:57:54.271Z,101139.50
2019-05-07T01:00:22.280Z,101140.83
2019-05-07T01:02:48.100Z,101143.81
2019-05-07T01:05:14.094Z,101127.95
2019-05-07T01:07:41.891Z,101137.65
2019-05-07T01:10:08.103Z,101136.76
2019-05-07T01:12:34.012Z,101130.54
2019-05-07T01:14:59.991Z,101129.56
2019-05-07T01:17:26.005Z,101122.45
2019-05-07T01:19:53.200Z,101127.20
2019-05-07T01:22:19.233Z,101120.92
2019-05-07T01:24:45.530Z,101131.45
2019-05-07T01:27:12.880Z,101123.52
2019-05-07T01:29:38.789Z,101126.22
2019-05-07T01:32:06.734Z,101125.34
2019-05-07T01:34:37.551Z,101124.95
2019-05-07T01:37:03.402Z,101126.37
2019-05-07T01:39:29.355Z,101125.97
2019-05-07T01:41:55.330Z,101120.35
2019-05-07T01:44:22.142Z,101119.66
2019-05-07T01:46:48.229Z,101121.48
2019-05-07T01:49:14.150Z,101111.30
2019-05-07T01:51:42.119Z,101116.20
2019-05-07T01:54:07.849Z,101118.18
2019-05-07T01:56:33.720Z,101117.45
2019-05-07T01:58:59.581Z,101118.42
2019-05-07T02:01:25.637Z,101117.10
2019-05-07T02:03:53.373Z,101108.77
2019-05-07T02:06:24.125Z,101100.41
2019-05-07T02:09:02.353Z,101102.36
2019-05-07T02:11:32.876Z,101109.47
2019-05-07T02:13:58.782Z,101103.30
2019-05-07T02:16:25.122Z,101099.39
2019-05-07T02:18:52.824Z,101094.20
2019-05-07T02:21:18.645Z,101096.05
2019-05-07T02:23:44.707Z,101098.79
2019-05-07T02:26:13.122Z,101095.71
2019-05-07T02:28:38.234Z,101089.59
2019-05-07T02:31:04.362Z,101083.82
2019-05-07T02:33:30.349Z,101092.62
2019-05-07T02:35:56.630Z,101085.97
2019-05-07T02:38:24.484Z,101086.36
2019-05-07T02:40:57.878Z,101086.80
2019-05-07T02:43:23.769Z,101084.10
2019-05-07T02:45:54.268Z,101080.58
2019-05-07T02:48:23.678Z,101078.86
2019-05-07T02:51:03.887Z,101083.67
2019-05-07T02:53:33.493Z,101073.58
2019-05-07T02:56:03.355Z,101070.94
2019-05-07T02:58:28.031Z,101074.37
2019-05-07T03:00:53.882Z,101064.27
2019-05-07T03:03:19.899Z,101072.66
2019-05-07T03:05:45.941Z,101081.91
2019-05-07T03:08:13.365Z,101079.76
2019-05-07T03:10:39.706Z,101081.13
2019-05-07T03:13:05.765Z,101074.07
2019-05-07T03:15:33.341Z,101077.98
2019-05-07T03:17:59.516Z,101071.37
2019-05-07T03:20:43.673Z,101072.20
2019-05-07T03:23:13.342Z,101065.95
2019-05-07T03:25:59.684Z,101058.45
2019-05-07T03:28:25.926Z,101056.64
2019-05-07T03:30:57.197Z,101061.05
2019-05-07T03:33:26.566Z,101056.19
2019-05-07T03:35:57.552Z,101053.60
2019-05-07T03:38:23.399Z,101052.28
2019-05-07T03:40:52.929Z,101051.01
2019-05-07T03:43:17.212Z,101051.01
2019-05-07T03:45:47.609Z,101048.36
2019-05-07T03:48:23.409Z,101053.66
2019-05-07T03:50:48.603Z,101047.44
2019-05-07T03:53:14.604Z,101050.42
2019-05-07T03:55:44.311Z,101043.47
2019-05-07T03:58:08.541Z,101042.55
2019-05-07T04:00:34.418Z,101039.85
2019-05-07T04:03:03.445Z,101036.77
2019-05-07T04:05:28.559Z,101038.43
2019-05-07T04:07:54.515Z,101043.67
2019-05-07T04:10:23.146Z,101042.23
2019-05-07T04:12:48.239Z,101040.81
2019-05-07T04:15:18.841Z,101038.55
2019-05-07T04:17:42.954Z,101043.69
2019-05-07T04:20:09.206Z,101035.20
2019-05-07T04:22:35.134Z,101034.67
2019-05-07T04:25:08.866Z,101036.80
2019-05-07T04:27:43.121Z,101031.50
2019-05-07T04:30:07.379Z,101036.74
2019-05-07T04:32:35.281Z,101035.87
2019-05-07T04:35:03.889Z,101034.49
2019-05-07T04:37:32.969Z,101029.63
2019-05-07T04:39:58.093Z,101032.62
2019-05-07T04:42:24.611Z,101035.16
2019-05-07T04:44:53.748Z,101030.69
2019-05-07T04:47:34.474Z,101025.80
2019-05-07T04:49:46.489Z,101030.58
2019-05-07T04:52:26.540Z,101026.61
2019-05-07T04:54:52.914Z,101020.45
2019-05-07T04:57:24.456Z,101024.58
2019-05-07T04:59:53.247Z,101020.61
2019-05-07T05:02:22.863Z,101020.55
2019-05-07T05:04:47.929Z,101015.21
2019-05-07T05:07:13.932Z,101016.48
2019-05-07T05:09:42.481Z,101005.45
2019-05-07T05:12:07.489Z,101009.92
2019-05-07T05:14:34.062Z,100998.94
2019-05-07T05:17:02.007Z,100997.67
2019-05-07T05:19:27.728Z,100996.30
2019-05-07T05:22:02.037Z,100986.45
2019-05-07T05:24:38.570Z,100987.72
2019-05-07T05:27:04.747Z,100987.77
2019-05-07T05:29:32.306Z,100976.34
2019-05-07T05:31:58.191Z,100980.31
2019-05-07T05:34:24.213Z,100975.42
2019-05-07T05:36:50.074Z,100979.39
2019-05-07T05:39:16.047Z,100975.81
2019-05-07T05:41:43.191Z,100974.80
2019-05-07T05:44:11.881Z,100971.52
2019-05-07T05:46:37.806Z,100966.14
2019-05-07T05:49:03.975Z,100932.87
2019-05-07T05:51:37.718Z,100960.31
2019-05-07T05:54:08.278Z,100953.70
2019-05-07T05:56:36.111Z,100955.34
2019-05-07T05:59:03.983Z,100953.84
2019-05-07T06:01:48.196Z,100953.19
2019-05-07T06:04:15.959Z,100945.56
2019-05-07T06:07:06.981Z,100951.07
2019-05-07T06:09:22.355Z,100959.77
2019-05-07T06:11:52.034Z,100955.68
2019-05-07T06:14:25.862Z,100956.44
2019-05-07T06:16:53.626Z,100950.16
2019-05-07T06:19:38.113Z,100949.22
2019-05-07T06:22:12.813Z,100947.06
2019-05-07T06:24:42.660Z,100942.60
2019-05-07T06:27:08.638Z,100944.34
2019-05-07T06:29:34.647Z,100946.94
2019-05-07T06:32:02.822Z,100944.63
2019-05-07T06:34:30.276Z,100949.35
2019-05-07T06:36:56.139Z,100957.56
2019-05-07T06:39:26.674Z,100959.11
2019-05-07T06:41:54.489Z,100947.55
2019-05-07T06:44:22.441Z,100943.58
2019-05-07T06:46:48.532Z,100947.00
2019-05-07T06:49:14.414Z,100948.30
2019-05-07T06:51:41.986Z,100945.47
2019-05-07T06:54:08.038Z,100945.35
2019-05-07T06:56:33.898Z,100949.59
2019-05-07T06:59:02.298Z,100951.19
2019-05-07T07:01:46.554Z,100959.89
2019-05-07T07:04:14.315Z,100955.34
2019-05-07T07:06:47.762Z,100950.49
2019-05-07T07:09:30.268Z,100947.39
2019-05-07T07:12:02.059Z,100946.97
2019-05-07T07:14:28.362Z,100936.79
2019-05-07T07:16:54.298Z,100936.73
2019-05-07T07:19:20.364Z,100933.41
2019-05-07T07:21:46.353Z,100930.76
2019-05-07T07:24:12.811Z,100932.89
2019-05-07T07:26:38.966Z,100933.32
2019-05-07T07:29:05.633Z,100935.09
2019-05-07T07:31:39.360Z,100928.92
2019-05-07T07:34:05.826Z,100930.94
2019-05-07T07:36:33.672Z,100929.48
2019-05-07T07:39:01.911Z,100924.92
2019-05-07T07:41:38.600Z,100930.94
2019-05-07T07:44:04.774Z,100922.41
2019-05-07T07:46:32.850Z,100919.56
2019-05-07T07:49:09.888Z,100922.09
2019-05-07T07:51:37.882Z,100919.24
2019-05-07T07:53:53.919Z,100911.58
2019-05-07T07:56:47.907Z,100912.48
2019-05-07T07:59:03.540Z,100916.81
2019-05-07T08:01:46.250Z,100921.57
2019-05-07T08:04:12.477Z,100912.58
2019-05-07T08:06:39.122Z,100911.58
2019-05-07T08:09:06.290Z,100910.57
2019-05-07T08:11:32.264Z,100898.98
2019-05-07T08:13:58.129Z,100896.14
2019-05-07T08:16:24.280Z,100895.00
2019-05-07T08:18:52.166Z,100903.20
2019-05-07T08:21:17.956Z,100900.91
2019-05-07T08:23:43.922Z,100894.07
2019-05-07T08:26:09.800Z,100893.55
2019-05-07T08:28:35.801Z,100891.53
2019-05-07T08:31:06.561Z,100889.55
2019-05-07T08:33:37.113Z,100895.52
2019-05-07T08:36:14.742Z,100893.56
2019-05-07T08:38:52.720Z,100890.31
2019-05-07T08:41:19.235Z,100891.50
2019-05-07T08:43:45.104Z,100896.22
2019-05-07T08:46:28.343Z,100894.83
2019-05-07T08:48:54.308Z,100898.66
2019-05-07T08:51:22.257Z,100890.56
2019-05-07T08:53:50.099Z,100898.07
2019-05-07T08:56:15.959Z,100897.06
2019-05-07T08:58:42.128Z,100889.48
2019-05-07T09:01:08.409Z,100894.72
2019-05-07T09:03:43.301Z,100893.88
2019-05-07T09:06:11.710Z,100890.73
2019-05-07T09:08:37.674Z,100888.42
2019-05-07T09:11:03.618Z,100881.27
2019-05-07T09:13:29.624Z,100880.20
2019-05-07T09:15:55.507Z,100882.16
2019-05-07T09:18:22.903Z,100873.52
2019-05-07T09:20:49.231Z,100874.18
2019-05-07T09:23:15.066Z,100871.30
2019-05-07T09:25:48.074Z,100872.03
2019-05-07T09:28:14.317Z,100877.58
2019-05-07T09:30:53.871Z,100876.98
2019-05-07T09:33:32.090Z,100873.16
2019-05-07T09:35:58.144Z,100867.16
2019-05-07T09:38:23.985Z,100858.17
2019-05-07T09:40:50.023Z,100855.85
2019-05-07T09:43:15.897Z,100857.48
2019-05-07T09:45:42.209Z,100856.01
2019-05-07T09:48:08.362Z,100854.45
2019-05-07T09:50:34.364Z,100854.30
2019-05-07T09:53:02.118Z,100858.59
2019-05-07T09:55:28.195Z,100859.47
2019-05-07T09:57:54.192Z,100862.12
2019-05-07T10:00:22.500Z,100846.17
2019-05-07T10:02:48.509Z,100843.59
2019-05-07T10:05:14.638Z,100837.02
2019-05-07T10:07:42.382Z,100832.24
2019-05-07T10:10:08.463Z,100830.91
2019-05-07T10:12:36.390Z,100828.83
2019-05-07T10:15:03.183Z,100824.42
2019-05-07T10:17:32.728Z,100832.96
2019-05-07T10:19:59.711Z,100826.31
2019-05-07T10:22:25.675Z,100829.97
2019-05-07T10:24:52.231Z,100835.36
2019-05-07T10:27:18.304Z,100836.38
2019-05-07T10:29:44.289Z,100836.08
2019-05-07T10:32:12.643Z,100843.63
2019-05-07T10:34:38.535Z,100841.53
2019-05-07T10:37:04.477Z,100841.20
2019-05-07T10:39:32.426Z,100846.44
2019-05-07T10:41:58.431Z,100846.44
2019-05-07T10:44:26.264Z,100850.50
2019-05-07T10:47:12.101Z,100867.84
2019-05-07T10:49:45.509Z,100858.38
2019-05-07T10:52:12.564Z,100867.02
2019-05-07T10:54:38.485Z,100861.20
2019-05-07T10:57:04.346Z,100869.47
2019-05-07T10:59:30.412Z,100864.72
2019-05-07T11:02:02.463Z,100860.14
2019-05-07T11:04:39.256Z,100843.70
2019-05-07T11:06:56.560Z,100834.23
2019-05-07T11:09:22.399Z,100831.20
2019-05-07T11:11:48.280Z,100818.62
2019-05-07T11:14:14.376Z,100812.13
2019-05-07T11:16:43.078Z,100806.57
2019-05-07T11:19:09.126Z,100807.91
2019-05-07T11:21:35.193Z,100802.09
2019-05-07T11:24:03.185Z,100804.60
2019-05-07T11:26:28.919Z,100807.98
2019-05-07T11:28:55.008Z,100807.75
2019-05-07T11:31:22.359Z,100808.06
2019-05-07T11:33:48.264Z,100804.95
2019-05-07T11:36:14.226Z,100802.90
2019-05-07T11:38:41.901Z,100800.01
2019-05-07T11:41:07.871Z,100793.90
2019-05-07T11:43:47.810Z,100790.30
2019-05-07T11:46:16.147Z,100784.07
2019-05-07T11:48:44.005Z,100783.73
2019-05-07T11:51:29.631Z,100787.19
2019-05-07T11:54:08.887Z,100781.88
2019-05-07T11:56:34.987Z,100780.92
2019-05-07T11:59:02.645Z,100776.10
2019-05-07T12:01:41.633Z,100777.02
2019-05-07T12:03:56.456Z,100780.84
2019-05-07T12:06:22.414Z,100776.94
2019-05-07T12:08:51.962Z,100772.00
2019-05-07T12:11:16.281Z,100768.36
2019-05-07T12:13:42.745Z,100771.02
2019-05-07T12:16:11.465Z,100774.59
2019-05-07T12:18:36.498Z,100772.87
2019-05-07T12:21:10.926Z,100744.22
2019-05-07T12:23:30.158Z,100775.45
2019-05-07T12:25:56.104Z,100771.05
2019-05-07T12:28:22.649Z,100781.67
2019-05-07T12:30:56.126Z,100783.49
2019-05-07T12:33:42.631Z,100780.58
2019-05-07T12:36:12.421Z,100780.80
2019-05-07T12:38:37.965Z,100778.28
2019-05-07T12:41:06.190Z,100777.64
2019-05-07T12:43:32.151Z,100765.04
2019-05-07T12:45:58.037Z,100766.90
2019-05-07T12:48:24.149Z,100768.75
2019-05-07T12:50:52.137Z,100764.99
2019-05-07T12:53:28.543Z,100773.45
2019-05-07T12:55:58.954Z,100773.97
2019-05-07T12:58:25.227Z,100774.84
2019-05-07T13:01:09.876Z,100775.69
2019-05-07T13:03:54.372Z,100774.12
2019-05-07T13:06:22.072Z,100768.95
2019-05-07T13:08:47.899Z,100770.73
2019-05-07T13:11:13.772Z,100761.21
2019-05-07T13:13:39.882Z,100759.02
2019-05-07T13:16:05.844Z,100753.17
2019-05-07T13:18:31.698Z,100756.67
2019-05-07T13:20:57.785Z,100761.45
2019-05-07T13:23:23.721Z,100765.84
2019-05-07T13:25:49.608Z,100762.25
2019-05-07T13:28:15.772Z,100748.17
2019-05-07T13:30:43.895Z,100754.95
2019-05-07T13:33:12.176Z,100748.09
2019-05-07T13:35:38.505Z,100749.00
2019-05-07T13:38:06.357Z,100747.50
2019-05-07T13:40:37.106Z,100740.07
2019-05-07T13:43:06.971Z,100745.80
2019-05-07T13:45:48.978Z,100740.41
2019-05-07T13:48:19.805Z,100740.27
2019-05-07T13:50:45.754Z,100731.67
2019-05-07T13:53:12.313Z,100734.25
2019-05-07T13:55:38.531Z,100734.98
2019-05-07T13:58:04.748Z,100732.18
2019-05-07T14:00:35.108Z,100725.39
2019-05-07T14:03:03.249Z,100724.48
2019-05-07T14:05:29.173Z,100719.17
2019-05-07T14:07:55.108Z,100723.61
2019-05-07T14:10:21.219Z,100721.83
2019-05-07T14:12:47.082Z,100719.63
2019-05-07T14:15:13.038Z,100720.09
2019-05-07T14:17:39.229Z,100717.44
2019-05-07T14:20:05.384Z,100717.84
2019-05-07T14:22:31.853Z,100723.53
2019-05-07T14:24:58.050Z,100718.61
2019-05-07T14:27:24.031Z,100720.88
2019-05-07T14:29:51.529Z,100717.36
2019-05-07T14:32:23.246Z,100722.21
2019-05-07T14:35:07.555Z,100726.19
2019-05-07T14:37:38.415Z,100728.39
2019-05-07T14:40:05.095Z,100724.87
2019-05-07T14:42:32.946Z,100727.14
2019-05-07T14:44:59.156Z,100728.69
2019-05-07T14:47:25.128Z,100726.30
2019-05-07T14:49:52.968Z,100722.75
2019-05-07T14:52:30.170Z,100732.81
2019-05-07T14:54:46.830Z,100731.70
2019-05-07T14:57:12.920Z,100738.48
2019-05-07T14:59:39.109Z,100734.09
2019-05-07T15:02:05.415Z,100730.59
2019-05-07T15:04:31.276Z,100722.78
2019-05-07T15:06:57.542Z,100728.83
2019-05-07T15:09:23.534Z,100723.39
2019-05-07T15:11:49.558Z,100720.88
2019-05-07T15:14:15.548Z,100719.69
2019-05-07T15:16:42.717Z,100719.69
2019-05-07T15:19:08.858Z,100721.96
2019-05-07T15:21:34.962Z,100718.13
2019-05-07T15:24:02.332Z,100724.30
2019-05-07T15:26:28.336Z,100722.55
2019-05-07T15:29:01.948Z,100723.50
2019-05-07T15:31:35.753Z,100717.14
2019-05-07T15:34:02.973Z,100723.25
2019-05-07T15:36:29.263Z,100720.95
2019-05-07T15:38:55.152Z,100719.52
2019-05-07T15:41:22.796Z,100716.02
2019-05-07T15:43:48.993Z,100714.61
2019-05-07T15:46:14.837Z,100721.11
2019-05-07T15:48:42.017Z,100712.56
2019-05-07T15:51:08.189Z,100701.72
2019-05-07T15:53:47.870Z,100704.50
2019-05-07T15:56:13.935Z,100699.33
2019-05-07T15:58:39.894Z,100676.84
2019-05-07T16:01:05.858Z,100675.00
2019-05-07T16:03:33.816Z,100679.33
2019-05-07T16:06:03.531Z,100677.45
2019-05-07T16:08:29.214Z,100665.47
2019-05-07T16:10:55.276Z,100656.20
2019-05-07T16:13:23.179Z,100653.55
2019-05-07T16:15:49.053Z,100662.25
2019-05-07T16:18:28.703Z,100661.09
2019-05-07T16:20:54.534Z,100662.97
2019-05-07T16:23:22.045Z,100662.09
2019-05-07T16:25:48.070Z,100658.52
2019-05-07T16:28:13.943Z,100649.38
2019-05-07T16:30:39.790Z,100642.83
2019-05-07T16:33:05.749Z,100638.02
2019-05-07T16:35:32.173Z,100641.11
2019-05-07T16:37:58.210Z,100635.95
2019-05-07T16:40:24.373Z,100634.31
2019-05-07T16:42:52.365Z,100629.22
2019-05-07T16:45:18.088Z,100634.52
2019-05-07T16:47:44.155Z,100635.83
2019-05-07T16:50:12.937Z,100631.52
2019-05-07T16:52:39.143Z,100621.12
2019-05-07T16:55:05.316Z,100624.77
2019-05-07T16:57:42.346Z,100611.98
2019-05-07T17:00:25.065Z,100607.77
2019-05-07T17:02:52.834Z,100594.38
2019-05-07T17:05:22.720Z,100594.05
2019-05-07T17:07:52.123Z,100590.95
2019-05-07T17:10:18.281Z,100585.25
2019-05-07T17:12:44.723Z,100569.37
2019-05-07T17:15:12.385Z,100569.25
2019-05-07T17:17:38.538Z,100570.25
2019-05-07T17:20:05.122Z,100565.02
2019-05-07T17:22:32.250Z,100565.16
2019-05-07T17:25:00.218Z,100575.80
2019-05-07T17:27:26.114Z,100584.12
2019-05-07T17:29:52.156Z,100589.80
2019-05-07T17:32:18.090Z,100594.13
2019-05-07T17:34:43.965Z,100601.06
2019-05-07T17:37:12.503Z,100604.03
2019-05-07T17:39:37.652Z,100610.13
2019-05-07T17:42:03.617Z,100609.68
2019-05-07T17:44:29.765Z,100614.42
2019-05-07T17:46:55.621Z,100611.26
2019-05-07T17:49:21.900Z,100608.16
2019-05-07T17:51:48.094Z,100606.35
2019-05-07T17:54:14.053Z,100609.48
2019-05-07T17:56:42.143Z,100610.88
2019-05-07T17:59:08.123Z,100604.19
2019-05-07T18:01:35.991Z,100602.38
2019-05-07T18:04:02.951Z,100601.12
2019-05-07T18:06:29.494Z,100598.48
2019-05-07T18:08:55.353Z,100597.96
2019-05-07T18:11:24.098Z,100595.70
2019-05-07T18:13:49.007Z,100592.22
2019-05-07T18:16:37.808Z,100591.28
2019-05-07T18:19:03.982Z,100588.70
2019-05-07T18:21:29.974Z,100593.47
2019-05-07T18:23:55.979Z,100586.86
2019-05-07T18:26:30.476Z,100583.72
2019-05-07T18:28:49.634Z,100585.47
2019-05-07T18:31:16.330Z,100583.72
2019-05-07T18:33:44.220Z,100579.30
2019-05-07T18:36:12.087Z,100574.20
2019-05-07T18:38:37.937Z,100578.44
2019-05-07T18:41:04.057Z,100579.83
2019-05-07T18:43:30.041Z,100578.89
2019-05-07T18:45:55.900Z,100576.25
2019-05-07T18:48:22.401Z,100579.70
2019-05-07T18:50:48.397Z,100575.73
2019-05-07T18:53:14.367Z,100579.70
2019-05-07T18:55:42.204Z,100574.41
2019-05-07T18:58:13.213Z,100573.47
2019-05-07T19:00:58.933Z,100576.19
2019-05-07T19:03:25.446Z,100567.92
2019-05-07T19:05:52.031Z,100564.61
2019-05-07T19:08:20.144Z,100565.54
2019-05-07T19:10:46.179Z,100563.03
2019-05-07T19:13:12.166Z,100564.35
2019-05-07T19:15:39.078Z,100561.70
2019-05-07T19:18:05.062Z,100560.38
2019-05-07T19:20:32.667Z,100553.38
2019-05-07T19:22:58.870Z,100561.77
2019-05-07T19:25:24.761Z,100555.29
2019-05-07T19:27:52.534Z,100557.52
2019-05-07T19:30:18.702Z,100553.67
2019-05-07T19:32:44.587Z,100555.48
2019-05-07T19:35:12.371Z,100557.64
2019-05-07T19:37:38.437Z,100555.80
2019-05-07T19:40:07.307Z,100555.35
2019-05-07T19:42:33.252Z,100553.09
2019-05-07T19:44:59.312Z,100561.41
2019-05-07T19:47:25.493Z,100557.94
2019-05-07T19:49:52.442Z,100536.30
2019-05-07T19:52:18.470Z,100554.87
2019-05-07T19:54:58.053Z,100556.19
2019-05-07T19:57:14.201Z,100547.80
2019-05-07T19:59:40.317Z,100548.25
2019-05-07T20:02:08.204Z,100545.22
2019-05-07T20:04:34.191Z,100545.67
2019-05-07T20:07:00.291Z,100541.32
2019-05-07T20:09:28.039Z,100539.19
2019-05-07T20:11:53.896Z,100534.84
2019-05-07T20:14:22.129Z,100529.62
2019-05-07T20:16:47.604Z,100531.45
2019-05-07T20:19:13.552Z,100527.97
2019-05-07T20:21:39.596Z,100521.87
2019-05-07T20:24:05.567Z,100519.36
2019-05-07T20:26:32.644Z,100515.46
2019-05-07T20:28:58.946Z,100520.81
2019-05-07T20:31:24.932Z,100488.03
2019-05-07T20:33:52.982Z,100514.72
2019-05-07T20:36:18.645Z,100513.95
2019-05-07T20:38:44.618Z,100514.85
2019-05-07T20:41:12.463Z,100520.14
2019-05-07T20:43:38.563Z,100509.98
2019-05-07T20:46:04.428Z,100509.05
2019-05-07T20:48:32.350Z,100505.53
2019-05-07T20:50:58.077Z,100509.56
2019-05-07T20:53:42.376Z,100509.11
2019-05-07T20:56:08.496Z,100508.66
2019-05-07T20:58:34.345Z,100508.66
2019-05-07T21:01:00.254Z,100506.53
2019-05-07T21:03:26.154Z,100497.66
2019-05-07T21:05:52.999Z,100498.15
2019-05-07T21:08:19.628Z,100497.21
2019-05-07T21:10:45.726Z,100493.25
2019-05-07T21:13:26.763Z,100488.41
2019-05-07T21:15:41.763Z,100488.47
2019-05-07T21:18:07.468Z,100484.61
2019-05-07T21:20:33.431Z,100490.48
2019-05-07T21:22:59.525Z,100486.58
2019-05-07T21:25:25.542Z,100484.80
2019-05-07T21:27:53.091Z,100489.16
2019-05-07T21:30:19.172Z,100479.52
2019-05-07T21:32:45.287Z,100482.54
2019-05-07T21:35:11.339Z,100479.97
2019-05-07T21:37:37.207Z,100479.52
2019-05-07T21:40:06.440Z,100475.23
2019-05-07T21:42:32.441Z,100474.29
2019-05-07T21:44:58.299Z,100475.30
2019-05-07T21:47:26.209Z,100473.55
2019-05-07T21:49:54.851Z,100476.61
2019-05-07T21:52:22.031Z,100465.17
2019-05-07T21:54:49.389Z,100463.39
2019-05-07T21:57:17.121Z,100454.59
2019-05-07T21:59:43.246Z,100447.98
2019-05-07T22:02:12.663Z,100435.56
2019-05-07T22:04:38.880Z,100439.11
2019-05-07T22:07:04.733Z,100426.83
2019-05-07T22:09:32.883Z,100425.12
2019-05-07T22:11:58.645Z,100433.95
2019-05-07T22:20:24.679Z,100421.56
2019-05-07T22:22:52.112Z,100433.97
2019-05-07T22:25:18.136Z,100438.45
2019-05-07T22:27:44.218Z,100433.72
2019-05-07T22:30:12.581Z,100433.30
2019-05-07T22:32:46.172Z,100433.36
2019-05-07T22:35:14.033Z,100431.66
2019-05-07T22:37:39.894Z,100429.95
2019-05-07T22:40:06.614Z,100426.50
2019-05-07T22:42:32.781Z,100424.38
2019-05-07T22:44:58.929Z,100427.95
2019-05-07T22:47:24.956Z,100428.47
2019-05-07T22:49:53.215Z,100428.08
2019-05-07T22:52:18.638Z,100415.31
2019-05-07T22:54:44.784Z,100417.16
2019-05-07T22:57:14.223Z,100414.52
2019-05-07T22:59:40.091Z,100408.91
2019-05-07T23:02:06.414Z,100402.75
2019-05-07T23:04:32.652Z,100405.01
2019-05-07T23:06:58.512Z,100403.30
2019-05-07T23:09:24.574Z,100401.11
2019-05-07T23:11:52.617Z,100396.77
2019-05-07T23:14:18.114Z,100398.92
2019-05-07T23:16:44.072Z,100390.16
2019-05-07T23:19:09.904Z,100390.16
2019-05-07T23:21:35.849Z,100386.58
2019-05-07T23:24:01.874Z,100382.23
2019-05-07T23:26:27.749Z,100383.55
2019-05-07T23:28:53.582Z,100371.24
2019-05-07T23:31:19.750Z,100382.68
2019-05-07T23:33:45.596Z,100377.02
2019-05-07T23:36:12.922Z,100378.33
2019-05-07T23:38:39.124Z,100378.33
2019-05-07T23:41:06.991Z,100379.66
2019-05-07T23:43:33.059Z,100368.28
2019-05-07T23:45:59.147Z,100368.41
2019-05-07T23:48:25.021Z,100369.34
2019-05-07T23:50:52.541Z,100366.28
2019-05-07T23:53:18.654Z,100377.84
2019-05-07T23:55:44.557Z,100370.86
2019-05-07T23:58:13.883Z,100367.80
